sensor_id;sensor_type;location;lat;lon;timestamp;temperature;humidity
49489;SHT31;35382;51.484;11.476;2022-08-01T00:00:49;17.63;87.21
49489;SHT31;35382;51.484;11.476;2022-08-01T00:02:30;17.61;86.73
49489;SHT31;35382;51.484;11.476;2022-08-01T00:04:11;17.63;86.58
49489;SHT31;35382;51.484;11.476;2022-08-01T00:05:52;17.66;86.70
49489;SHT31;35382;51.484;11.476;2022-08-01T00:07:34;17.63;86.70
49489;SHT31;35382;51.484;11.476;2022-08-01T00:09:15;17.55;86.99
49489;SHT31;35382;51.484;11.476;2022-08-01T00:10:56;17.53;87.23
49489;SHT31;35382;51.484;11.476;2022-08-01T00:12:37;17.58;87.07
49489;SHT31;35382;51.484;11.476;2022-08-01T00:14:18;17.58;87.26
49489;SHT31;35382;51.484;11.476;2022-08-01T00:15:59;17.63;87.28
49489;SHT31;35382;51.484;11.476;2022-08-01T00:17:41;17.58;86.81
49489;SHT31;35382;51.484;11.476;2022-08-01T00:19:22;17.46;87.39
49489;SHT31;35382;51.484;11.476;2022-08-01T00:21:04;17.51;87.55
49489;SHT31;35382;51.484;11.476;2022-08-01T00:22:45;17.61;87.51
49489;SHT31;35382;51.484;11.476;2022-08-01T00:24:26;17.63;87.30
49489;SHT31;35382;51.484;11.476;2022-08-01T00:26:07;17.69;87.57
49489;SHT31;35382;51.484;11.476;2022-08-01T00:27:48;17.69;87.34
49489;SHT31;35382;51.484;11.476;2022-08-01T00:29:29;17.65;87.87
49489;SHT31;35382;51.484;11.476;2022-08-01T00:31:10;17.63;88.17
49489;SHT31;35382;51.484;11.476;2022-08-01T00:32:51;17.61;87.72
49489;SHT31;35382;51.484;11.476;2022-08-01T00:34:32;17.48;88.28
49489;SHT31;35382;51.484;11.476;2022-08-01T00:36:13;17.52;88.66
49489;SHT31;35382;51.484;11.476;2022-08-01T00:37:54;17.61;88.28
49489;SHT31;35382;51.484;11.476;2022-08-01T00:39:35;17.55;88.81
49489;SHT31;35382;51.484;11.476;2022-08-01T00:41:16;17.52;88.85
49489;SHT31;35382;51.484;11.476;2022-08-01T00:42:56;17.56;88.79
49489;SHT31;35382;51.484;11.476;2022-08-01T00:44:38;17.65;88.47
49489;SHT31;35382;51.484;11.476;2022-08-01T00:46:19;17.63;88.55
49489;SHT31;35382;51.484;11.476;2022-08-01T00:48:00;17.61;88.76
49489;SHT31;35382;51.484;11.476;2022-08-01T00:49:41;17.56;89.03
49489;SHT31;35382;51.484;11.476;2022-08-01T00:51:22;17.55;89.04
49489;SHT31;35382;51.484;11.476;2022-08-01T00:53:03;17.62;88.47
49489;SHT31;35382;51.484;11.476;2022-08-01T00:54:45;17.56;88.53
49489;SHT31;35382;51.484;11.476;2022-08-01T00:56:26;17.35;89.16
49489;SHT31;35382;51.484;11.476;2022-08-01T00:58:08;17.18;89.81
49489;SHT31;35382;51.484;11.476;2022-08-01T00:59:50;17.18;89.97
49489;SHT31;35382;51.484;11.476;2022-08-01T01:01:31;17.31;89.39
49489;SHT31;35382;51.484;11.476;2022-08-01T01:03:12;17.29;89.53
49489;SHT31;35382;51.484;11.476;2022-08-01T01:04:53;17.15;89.73
49489;SHT31;35382;51.484;11.476;2022-08-01T01:08:28;17.31;89.76
49489;SHT31;35382;51.484;11.476;2022-08-01T01:10:24;17.11;89.47
49489;SHT31;35382;51.484;11.476;2022-08-01T01:12:33;17.21;89.83
49489;SHT31;35382;51.484;11.476;2022-08-01T01:14:27;17.14;89.98
49489;SHT31;35382;51.484;11.476;2022-08-01T01:16:15;17.22;90.07
49489;SHT31;35382;51.484;11.476;2022-08-01T01:18:02;17.24;90.11
49489;SHT31;35382;51.484;11.476;2022-08-01T01:19:51;17.28;90.26
49489;SHT31;35382;51.484;11.476;2022-08-01T01:21:58;17.35;89.84
49489;SHT31;35382;51.484;11.476;2022-08-01T01:24:12;17.34;90.15
49489;SHT31;35382;51.484;11.476;2022-08-01T01:26:23;17.43;89.69
49489;SHT31;35382;51.484;11.476;2022-08-01T01:28:20;17.49;89.67
49489;SHT31;35382;51.484;11.476;2022-08-01T01:30:06;17.61;89.46
49489;SHT31;35382;51.484;11.476;2022-08-01T01:31:53;17.69;88.40
49489;SHT31;35382;51.484;11.476;2022-08-01T01:33:37;17.73;88.51
49489;SHT31;35382;51.484;11.476;2022-08-01T01:35:24;17.81;88.16
49489;SHT31;35382;51.484;11.476;2022-08-01T01:37:09;17.82;88.11
49489;SHT31;35382;51.484;11.476;2022-08-01T01:38:52;17.82;87.86
49489;SHT31;35382;51.484;11.476;2022-08-01T01:40:34;17.81;88.17
49489;SHT31;35382;51.484;11.476;2022-08-01T01:42:17;17.75;88.57
49489;SHT31;35382;51.484;11.476;2022-08-01T01:44:00;17.78;88.86
49489;SHT31;35382;51.484;11.476;2022-08-01T01:45:44;17.79;88.95
49489;SHT31;35382;51.484;11.476;2022-08-01T01:47:27;17.81;88.98
49489;SHT31;35382;51.484;11.476;2022-08-01T01:49:08;17.85;88.20
49489;SHT31;35382;51.484;11.476;2022-08-01T01:50:53;17.92;87.90
49489;SHT31;35382;51.484;11.476;2022-08-01T01:52:35;17.90;88.23
49489;SHT31;35382;51.484;11.476;2022-08-01T01:54:17;17.96;87.67
49489;SHT31;35382;51.484;11.476;2022-08-01T01:56:00;17.93;88.18
49489;SHT31;35382;51.484;11.476;2022-08-01T01:57:43;17.96;88.29
49489;SHT31;35382;51.484;11.476;2022-08-01T01:59:27;17.92;88.37
49489;SHT31;35382;51.484;11.476;2022-08-01T02:01:10;17.90;88.37
49489;SHT31;35382;51.484;11.476;2022-08-01T02:02:53;17.83;88.88
49489;SHT31;35382;51.484;11.476;2022-08-01T02:04:36;17.76;89.20
49489;SHT31;35382;51.484;11.476;2022-08-01T02:06:19;17.85;88.95
49489;SHT31;35382;51.484;11.476;2022-08-01T02:08:02;17.58;90.06
49489;SHT31;35382;51.484;11.476;2022-08-01T02:09:45;17.58;90.08
49489;SHT31;35382;51.484;11.476;2022-08-01T02:11:27;17.55;90.22
49489;SHT31;35382;51.484;11.476;2022-08-01T02:13:09;17.59;90.21
49489;SHT31;35382;51.484;11.476;2022-08-01T02:14:53;17.69;89.59
49489;SHT31;35382;51.484;11.476;2022-08-01T02:16:36;17.72;89.89
49489;SHT31;35382;51.484;11.476;2022-08-01T02:18:17;17.76;89.40
49489;SHT31;35382;51.484;11.476;2022-08-01T02:19:59;17.79;89.35
49489;SHT31;35382;51.484;11.476;2022-08-01T02:22:00;17.82;89.67
49489;SHT31;35382;51.484;11.476;2022-08-01T02:23:42;17.85;89.46
49489;SHT31;35382;51.484;11.476;2022-08-01T02:27:33;17.81;89.72
49489;SHT31;35382;51.484;11.476;2022-08-01T02:29:24;17.83;89.57
49489;SHT31;35382;51.484;11.476;2022-08-01T02:31:10;17.86;89.86
49489;SHT31;35382;51.484;11.476;2022-08-01T02:33:00;17.90;89.48
49489;SHT31;35382;51.484;11.476;2022-08-01T02:34:46;17.92;89.60
49489;SHT31;35382;51.484;11.476;2022-08-01T02:36:28;17.93;89.51
49489;SHT31;35382;51.484;11.476;2022-08-01T02:38:12;17.93;89.48
49489;SHT31;35382;51.484;11.476;2022-08-01T02:39:55;17.82;89.90
49489;SHT31;35382;51.484;11.476;2022-08-01T02:41:40;17.86;90.02
49489;SHT31;35382;51.484;11.476;2022-08-01T02:43:24;17.90;89.74
49489;SHT31;35382;51.484;11.476;2022-08-01T02:45:08;17.83;90.24
49489;SHT31;35382;51.484;11.476;2022-08-01T02:46:56;17.93;89.68
49489;SHT31;35382;51.484;11.476;2022-08-01T02:48:38;18.00;89.41
49489;SHT31;35382;51.484;11.476;2022-08-01T02:50:23;18.02;89.90
49489;SHT31;35382;51.484;11.476;2022-08-01T02:52:07;18.02;89.40
49489;SHT31;35382;51.484;11.476;2022-08-01T02:53:49;18.03;89.73
49489;SHT31;35382;51.484;11.476;2022-08-01T02:55:32;18.09;89.64
49489;SHT31;35382;51.484;11.476;2022-08-01T02:57:14;18.09;89.63
49489;SHT31;35382;51.484;11.476;2022-08-01T02:58:55;18.10;89.85
49489;SHT31;35382;51.484;11.476;2022-08-01T03:00:36;18.16;89.07
49489;SHT31;35382;51.484;11.476;2022-08-01T03:02:19;18.22;89.37
49489;SHT31;35382;51.484;11.476;2022-08-01T03:04:02;18.23;89.58
49489;SHT31;35382;51.484;11.476;2022-08-01T03:05:44;18.16;89.50
49489;SHT31;35382;51.484;11.476;2022-08-01T03:07:28;18.26;89.18
49489;SHT31;35382;51.484;11.476;2022-08-01T03:09:11;18.27;88.45
49489;SHT31;35382;51.484;11.476;2022-08-01T03:10:53;18.29;88.83
49489;SHT31;35382;51.484;11.476;2022-08-01T03:12:36;18.33;88.62
49489;SHT31;35382;51.484;11.476;2022-08-01T03:14:20;18.27;88.57
49489;SHT31;35382;51.484;11.476;2022-08-01T03:16:02;18.32;88.53
49489;SHT31;35382;51.484;11.476;2022-08-01T03:17:45;18.29;89.16
49489;SHT31;35382;51.484;11.476;2022-08-01T03:19:28;18.32;89.05
49489;SHT31;35382;51.484;11.476;2022-08-01T03:21:11;18.36;88.68
49489;SHT31;35382;51.484;11.476;2022-08-01T03:22:54;18.37;88.77
49489;SHT31;35382;51.484;11.476;2022-08-01T03:24:39;18.39;88.94
49489;SHT31;35382;51.484;11.476;2022-08-01T03:26:21;18.39;89.36
49489;SHT31;35382;51.484;11.476;2022-08-01T03:28:04;18.34;89.46
49489;SHT31;35382;51.484;11.476;2022-08-01T03:29:47;18.36;89.12
49489;SHT31;35382;51.484;11.476;2022-08-01T03:31:29;18.36;89.34
49489;SHT31;35382;51.484;11.476;2022-08-01T03:33:11;18.34;89.67
49489;SHT31;35382;51.484;11.476;2022-08-01T03:34:51;18.30;88.97
49489;SHT31;35382;51.484;11.476;2022-08-01T03:36:34;18.32;89.35
49489;SHT31;35382;51.484;11.476;2022-08-01T03:38:21;18.36;89.70
49489;SHT31;35382;51.484;11.476;2022-08-01T03:40:22;18.27;89.68
49489;SHT31;35382;51.484;11.476;2022-08-01T03:42:17;18.30;89.61
49489;SHT31;35382;51.484;11.476;2022-08-01T03:44:05;18.25;89.85
49489;SHT31;35382;51.484;11.476;2022-08-01T03:45:50;18.16;90.07
49489;SHT31;35382;51.484;11.476;2022-08-01T03:47:34;18.29;89.51
49489;SHT31;35382;51.484;11.476;2022-08-01T03:49:22;18.27;89.84
49489;SHT31;35382;51.484;11.476;2022-08-01T03:51:03;18.26;89.64
49489;SHT31;35382;51.484;11.476;2022-08-01T03:52:45;18.26;90.23
49489;SHT31;35382;51.484;11.476;2022-08-01T03:54:31;18.26;90.38
49489;SHT31;35382;51.484;11.476;2022-08-01T03:56:18;18.30;89.87
49489;SHT31;35382;51.484;11.476;2022-08-01T03:58:00;18.32;89.98
49489;SHT31;35382;51.484;11.476;2022-08-01T03:59:42;18.34;89.97
49489;SHT31;35382;51.484;11.476;2022-08-01T04:01:23;18.41;89.61
49489;SHT31;35382;51.484;11.476;2022-08-01T04:03:08;18.44;89.34
49489;SHT31;35382;51.484;11.476;2022-08-01T04:04:50;18.49;89.03
49489;SHT31;35382;51.484;11.476;2022-08-01T04:06:31;18.54;88.43
49489;SHT31;35382;51.484;11.476;2022-08-01T04:08:12;18.57;88.80
49489;SHT31;35382;51.484;11.476;2022-08-01T04:09:53;18.60;89.02
49489;SHT31;35382;51.484;11.476;2022-08-01T04:11:34;18.67;89.18
49489;SHT31;35382;51.484;11.476;2022-08-01T04:13:15;18.80;88.92
49489;SHT31;35382;51.484;11.476;2022-08-01T04:14:56;18.85;88.69
49489;SHT31;35382;51.484;11.476;2022-08-01T04:16:37;18.80;88.76
49489;SHT31;35382;51.484;11.476;2022-08-01T04:18:18;18.84;88.66
49489;SHT31;35382;51.484;11.476;2022-08-01T04:19:59;18.90;88.45
49489;SHT31;35382;51.484;11.476;2022-08-01T04:21:40;18.90;88.63
49489;SHT31;35382;51.484;11.476;2022-08-01T04:23:24;19.01;88.97
49489;SHT31;35382;51.484;11.476;2022-08-01T04:25:14;18.87;89.75
49489;SHT31;35382;51.484;11.476;2022-08-01T04:26:58;18.93;88.92
49489;SHT31;35382;51.484;11.476;2022-08-01T04:28:41;19.01;89.26
49489;SHT31;35382;51.484;11.476;2022-08-01T04:30:26;18.93;89.24
49489;SHT31;35382;51.484;11.476;2022-08-01T04:32:11;18.91;89.04
49489;SHT31;35382;51.484;11.476;2022-08-01T04:33:54;18.73;89.75
49489;SHT31;35382;51.484;11.476;2022-08-01T04:35:36;18.74;90.03
49489;SHT31;35382;51.484;11.476;2022-08-01T04:37:19;18.75;89.85
49489;SHT31;35382;51.484;11.476;2022-08-01T04:39:01;18.81;90.13
49489;SHT31;35382;51.484;11.476;2022-08-01T04:40:42;18.77;89.83
49489;SHT31;35382;51.484;11.476;2022-08-01T04:42:26;18.68;90.38
49489;SHT31;35382;51.484;11.476;2022-08-01T04:44:08;18.61;90.68
49489;SHT31;35382;51.484;11.476;2022-08-01T04:45:50;18.57;91.13
49489;SHT31;35382;51.484;11.476;2022-08-01T04:47:31;18.63;91.21
49489;SHT31;35382;51.484;11.476;2022-08-01T04:49:12;18.56;91.65
49489;SHT31;35382;51.484;11.476;2022-08-01T04:50:56;18.47;91.93
49489;SHT31;35382;51.484;11.476;2022-08-01T04:52:38;18.41;92.32
49489;SHT31;35382;51.484;11.476;2022-08-01T04:54:19;18.43;92.55
49489;SHT31;35382;51.484;11.476;2022-08-01T04:56:02;18.49;92.20
49489;SHT31;35382;51.484;11.476;2022-08-01T04:57:45;18.44;92.75
49489;SHT31;35382;51.484;11.476;2022-08-01T04:59:27;18.49;92.59
49489;SHT31;35382;51.484;11.476;2022-08-01T05:01:20;18.53;92.34
49489;SHT31;35382;51.484;11.476;2022-08-01T05:03:01;18.54;92.11
49489;SHT31;35382;51.484;11.476;2022-08-01T05:04:42;18.54;92.33
49489;SHT31;35382;51.484;11.476;2022-08-01T05:06:23;18.59;92.13
49489;SHT31;35382;51.484;11.476;2022-08-01T05:08:04;18.60;92.37
49489;SHT31;35382;51.484;11.476;2022-08-01T05:09:46;18.51;92.48
49489;SHT31;35382;51.484;11.476;2022-08-01T05:11:27;18.47;92.87
49489;SHT31;35382;51.484;11.476;2022-08-01T05:13:08;18.49;92.87
49489;SHT31;35382;51.484;11.476;2022-08-01T05:14:49;18.41;93.17
49489;SHT31;35382;51.484;11.476;2022-08-01T05:16:30;18.41;93.04
49489;SHT31;35382;51.484;11.476;2022-08-01T05:18:11;18.44;93.11
49489;SHT31;35382;51.484;11.476;2022-08-01T05:19:52;18.51;92.72
49489;SHT31;35382;51.484;11.476;2022-08-01T05:21:34;18.51;92.88
49489;SHT31;35382;51.484;11.476;2022-08-01T05:23:15;18.63;92.47
49489;SHT31;35382;51.484;11.476;2022-08-01T05:24:56;18.84;92.00
49489;SHT31;35382;51.484;11.476;2022-08-01T05:26:37;18.84;91.49
49489;SHT31;35382;51.484;11.476;2022-08-01T05:28:18;18.95;91.25
49489;SHT31;35382;51.484;11.476;2022-08-01T05:29:59;19.25;90.51
49489;SHT31;35382;51.484;11.476;2022-08-01T05:31:40;19.79;88.44
49489;SHT31;35382;51.484;11.476;2022-08-01T05:33:21;20.19;87.12
49489;SHT31;35382;51.484;11.476;2022-08-01T05:35:02;20.09;87.28
49489;SHT31;35382;51.484;11.476;2022-08-01T05:36:43;19.96;87.77
49489;SHT31;35382;51.484;11.476;2022-08-01T05:38:24;19.68;88.70
49489;SHT31;35382;51.484;11.476;2022-08-01T05:40:06;19.87;87.68
49489;SHT31;35382;51.484;11.476;2022-08-01T05:41:47;19.65;89.02
49489;SHT31;35382;51.484;11.476;2022-08-01T05:43:28;19.54;89.50
49489;SHT31;35382;51.484;11.476;2022-08-01T05:45:09;19.51;89.73
49489;SHT31;35382;51.484;11.476;2022-08-01T05:46:51;19.35;89.82
49489;SHT31;35382;51.484;11.476;2022-08-01T05:48:32;19.17;90.45
49489;SHT31;35382;51.484;11.476;2022-08-01T05:50:13;19.32;90.27
49489;SHT31;35382;51.484;11.476;2022-08-01T05:51:54;19.36;90.34
49489;SHT31;35382;51.484;11.476;2022-08-01T05:53:35;19.41;89.48
49489;SHT31;35382;51.484;11.476;2022-08-01T05:55:16;19.58;89.19
49489;SHT31;35382;51.484;11.476;2022-08-01T05:56:57;19.93;88.30
49489;SHT31;35382;51.484;11.476;2022-08-01T05:58:42;19.76;87.99
49489;SHT31;35382;51.484;11.476;2022-08-01T06:00:23;19.55;88.60
49489;SHT31;35382;51.484;11.476;2022-08-01T06:02:04;19.52;88.35
49489;SHT31;35382;51.484;11.476;2022-08-01T06:03:45;19.71;87.71
49489;SHT31;35382;51.484;11.476;2022-08-01T06:05:26;19.76;87.50
49489;SHT31;35382;51.484;11.476;2022-08-01T06:07:07;19.72;87.79
49489;SHT31;35382;51.484;11.476;2022-08-01T06:08:48;20.05;86.83
49489;SHT31;35382;51.484;11.476;2022-08-01T06:10:29;20.46;86.05
49489;SHT31;35382;51.484;11.476;2022-08-01T06:12:10;20.15;85.85
49489;SHT31;35382;51.484;11.476;2022-08-01T06:13:51;20.04;86.35
49489;SHT31;35382;51.484;11.476;2022-08-01T06:15:32;19.93;86.19
49489;SHT31;35382;51.484;11.476;2022-08-01T06:17:13;20.06;86.21
49489;SHT31;35382;51.484;11.476;2022-08-01T06:18:54;20.08;86.91
49489;SHT31;35382;51.484;11.476;2022-08-01T06:20:35;20.04;86.19
49489;SHT31;35382;51.484;11.476;2022-08-01T06:22:16;20.09;85.62
49489;SHT31;35382;51.484;11.476;2022-08-01T06:23:57;20.33;85.43
49489;SHT31;35382;51.484;11.476;2022-08-01T06:25:38;20.50;85.15
49489;SHT31;35382;51.484;11.476;2022-08-01T06:27:19;20.40;85.22
49489;SHT31;35382;51.484;11.476;2022-08-01T06:29:00;20.13;85.07
49489;SHT31;35382;51.484;11.476;2022-08-01T06:30:41;20.30;85.69
49489;SHT31;35382;51.484;11.476;2022-08-01T06:32:22;20.29;85.08
49489;SHT31;35382;51.484;11.476;2022-08-01T06:34:03;20.41;84.71
49489;SHT31;35382;51.484;11.476;2022-08-01T06:35:44;20.44;85.17
49489;SHT31;35382;51.484;11.476;2022-08-01T06:37:29;20.20;85.78
49489;SHT31;35382;51.484;11.476;2022-08-01T06:39:10;19.97;86.26
49489;SHT31;35382;51.484;11.476;2022-08-01T06:40:51;19.90;86.52
49489;SHT31;35382;51.484;11.476;2022-08-01T06:42:32;20.00;86.18
49489;SHT31;35382;51.484;11.476;2022-08-01T06:44:16;20.02;86.40
49489;SHT31;35382;51.484;11.476;2022-08-01T06:45:57;20.10;86.19
49489;SHT31;35382;51.484;11.476;2022-08-01T06:47:38;20.22;85.50
49489;SHT31;35382;51.484;11.476;2022-08-01T06:49:19;20.29;85.23
49489;SHT31;35382;51.484;11.476;2022-08-01T06:51:00;20.39;86.31
49489;SHT31;35382;51.484;11.476;2022-08-01T06:52:52;20.54;84.98
49489;SHT31;35382;51.484;11.476;2022-08-01T06:54:33;21.06;83.26
49489;SHT31;35382;51.484;11.476;2022-08-01T06:56:13;21.18;82.76
49489;SHT31;35382;51.484;11.476;2022-08-01T06:57:54;21.03;82.26
49489;SHT31;35382;51.484;11.476;2022-08-01T06:59:35;21.01;81.57
49489;SHT31;35382;51.484;11.476;2022-08-01T07:01:16;20.77;82.35
49489;SHT31;35382;51.484;11.476;2022-08-01T07:02:58;20.66;82.33
49489;SHT31;35382;51.484;11.476;2022-08-01T07:04:41;20.59;83.11
49489;SHT31;35382;51.484;11.476;2022-08-01T07:06:24;20.60;83.15
49489;SHT31;35382;51.484;11.476;2022-08-01T07:08:05;20.62;83.59
49489;SHT31;35382;51.484;11.476;2022-08-01T07:09:46;20.86;82.62
49489;SHT31;35382;51.484;11.476;2022-08-01T07:11:27;20.87;82.56
49489;SHT31;35382;51.484;11.476;2022-08-01T07:13:08;20.70;82.19
49489;SHT31;35382;51.484;11.476;2022-08-01T07:14:49;20.60;83.00
49489;SHT31;35382;51.484;11.476;2022-08-01T07:16:30;20.73;82.49
49489;SHT31;35382;51.484;11.476;2022-08-01T07:18:11;20.70;82.86
49489;SHT31;35382;51.484;11.476;2022-08-01T07:19:52;20.63;82.57
49489;SHT31;35382;51.484;11.476;2022-08-01T07:21:35;20.69;80.95
49489;SHT31;35382;51.484;11.476;2022-08-01T07:23:16;20.81;81.13
49489;SHT31;35382;51.484;11.476;2022-08-01T07:24:57;20.91;81.39
49489;SHT31;35382;51.484;11.476;2022-08-01T07:26:42;20.98;81.34
49489;SHT31;35382;51.484;11.476;2022-08-01T07:28:23;20.97;80.53
49489;SHT31;35382;51.484;11.476;2022-08-01T07:30:05;20.97;79.70
49489;SHT31;35382;51.484;11.476;2022-08-01T07:31:46;21.01;78.91
49489;SHT31;35382;51.484;11.476;2022-08-01T07:33:27;20.90;79.58
49489;SHT31;35382;51.484;11.476;2022-08-01T07:35:08;20.96;80.68
49489;SHT31;35382;51.484;11.476;2022-08-01T07:36:50;20.87;76.89
49489;SHT31;35382;51.484;11.476;2022-08-01T07:38:31;20.67;77.55
49489;SHT31;35382;51.484;11.476;2022-08-01T07:40:12;20.59;78.88
49489;SHT31;35382;51.484;11.476;2022-08-01T07:41:53;20.49;79.33
49489;SHT31;35382;51.484;11.476;2022-08-01T07:43:34;20.49;79.80
49489;SHT31;35382;51.484;11.476;2022-08-01T07:45:16;20.43;80.58
49489;SHT31;35382;51.484;11.476;2022-08-01T07:46:57;20.59;80.14
49489;SHT31;35382;51.484;11.476;2022-08-01T07:48:38;20.47;80.39
49489;SHT31;35382;51.484;11.476;2022-08-01T07:50:19;20.77;80.00
49489;SHT31;35382;51.484;11.476;2022-08-01T07:52:00;20.77;78.81
49489;SHT31;35382;51.484;11.476;2022-08-01T07:53:41;21.23;79.16
49489;SHT31;35382;51.484;11.476;2022-08-01T07:55:22;21.01;79.75
49489;SHT31;35382;51.484;11.476;2022-08-01T07:57:03;21.18;78.31
49489;SHT31;35382;51.484;11.476;2022-08-01T07:58:44;21.14;77.58
49489;SHT31;35382;51.484;11.476;2022-08-01T08:00:27;21.11;78.34
49489;SHT31;35382;51.484;11.476;2022-08-01T08:02:09;21.01;77.54
49489;SHT31;35382;51.484;11.476;2022-08-01T08:03:50;21.14;78.07
49489;SHT31;35382;51.484;11.476;2022-08-01T08:05:31;21.27;78.60
49489;SHT31;35382;51.484;11.476;2022-08-01T08:07:13;20.96;77.07
49489;SHT31;35382;51.484;11.476;2022-08-01T08:08:54;20.72;78.35
49489;SHT31;35382;51.484;11.476;2022-08-01T08:10:34;20.86;78.42
49489;SHT31;35382;51.484;11.476;2022-08-01T08:12:15;20.90;78.63
49489;SHT31;35382;51.484;11.476;2022-08-01T08:13:56;20.96;76.84
49489;SHT31;35382;51.484;11.476;2022-08-01T08:15:37;20.96;78.48
49489;SHT31;35382;51.484;11.476;2022-08-01T08:17:19;20.84;77.07
49489;SHT31;35382;51.484;11.476;2022-08-01T08:19:00;20.81;77.37
49489;SHT31;35382;51.484;11.476;2022-08-01T08:20:41;21.04;77.83
49489;SHT31;35382;51.484;11.476;2022-08-01T08:22:22;20.90;77.29
49489;SHT31;35382;51.484;11.476;2022-08-01T08:24:03;20.98;77.35
49489;SHT31;35382;51.484;11.476;2022-08-01T08:26:02;20.94;77.54
49489;SHT31;35382;51.484;11.476;2022-08-01T08:27:43;21.30;76.69
49489;SHT31;35382;51.484;11.476;2022-08-01T08:29:26;21.47;75.79
49489;SHT31;35382;51.484;11.476;2022-08-01T08:31:07;21.51;75.39
49489;SHT31;35382;51.484;11.476;2022-08-01T08:32:48;21.52;76.55
49489;SHT31;35382;51.484;11.476;2022-08-01T08:34:29;21.68;75.74
49489;SHT31;35382;51.484;11.476;2022-08-01T08:36:11;21.88;75.05
49489;SHT31;35382;51.484;11.476;2022-08-01T08:37:53;22.04;75.52
49489;SHT31;35382;51.484;11.476;2022-08-01T08:39:34;22.22;73.59
49489;SHT31;35382;51.484;11.476;2022-08-01T08:41:15;22.26;75.03
49489;SHT31;35382;51.484;11.476;2022-08-01T08:42:58;21.92;73.20
49489;SHT31;35382;51.484;11.476;2022-08-01T08:44:41;21.66;72.88
49489;SHT31;35382;51.484;11.476;2022-08-01T08:46:23;21.99;72.59
49489;SHT31;35382;51.484;11.476;2022-08-01T08:48:05;21.85;72.29
49489;SHT31;35382;51.484;11.476;2022-08-01T08:49:48;22.04;73.16
49489;SHT31;35382;51.484;11.476;2022-08-01T08:51:34;22.04;72.25
49489;SHT31;35382;51.484;11.476;2022-08-01T08:53:16;21.95;72.72
49489;SHT31;35382;51.484;11.476;2022-08-01T08:54:57;21.95;70.76
49489;SHT31;35382;51.484;11.476;2022-08-01T08:56:39;22.26;71.16
49489;SHT31;35382;51.484;11.476;2022-08-01T08:58:21;22.23;69.54
49489;SHT31;35382;51.484;11.476;2022-08-01T09:00:03;22.09;71.19
49489;SHT31;35382;51.484;11.476;2022-08-01T09:01:45;22.09;71.06
49489;SHT31;35382;51.484;11.476;2022-08-01T09:03:26;22.05;69.61
49489;SHT31;35382;51.484;11.476;2022-08-01T09:05:07;22.18;72.82
49489;SHT31;35382;51.484;11.476;2022-08-01T09:06:48;22.20;71.46
49489;SHT31;35382;51.484;11.476;2022-08-01T09:08:29;22.32;69.95
49489;SHT31;35382;51.484;11.476;2022-08-01T09:10:10;22.57;70.21
49489;SHT31;35382;51.484;11.476;2022-08-01T09:11:54;22.80;69.73
49489;SHT31;35382;51.484;11.476;2022-08-01T09:13:35;22.94;70.10
49489;SHT31;35382;51.484;11.476;2022-08-01T09:15:16;22.94;70.34
49489;SHT31;35382;51.484;11.476;2022-08-01T09:17:02;22.69;70.32
49489;SHT31;35382;51.484;11.476;2022-08-01T09:18:44;22.04;70.77
49489;SHT31;35382;51.484;11.476;2022-08-01T09:20:25;21.99;71.40
49489;SHT31;35382;51.484;11.476;2022-08-01T09:22:10;21.98;71.80
49489;SHT31;35382;51.484;11.476;2022-08-01T09:23:53;21.91;72.17
49489;SHT31;35382;51.484;11.476;2022-08-01T09:25:50;22.01;71.68
49489;SHT31;35382;51.484;11.476;2022-08-01T09:27:33;21.94;71.75
49489;SHT31;35382;51.484;11.476;2022-08-01T09:29:28;22.09;70.99
49489;SHT31;35382;51.484;11.476;2022-08-01T09:31:12;22.56;69.73
49489;SHT31;35382;51.484;11.476;2022-08-01T09:33:01;22.79;68.63
49489;SHT31;35382;51.484;11.476;2022-08-01T09:34:43;22.86;70.48
49489;SHT31;35382;51.484;11.476;2022-08-01T09:36:26;22.60;69.80
49489;SHT31;35382;51.484;11.476;2022-08-01T09:38:18;22.16;71.56
49489;SHT31;35382;51.484;11.476;2022-08-01T09:39:59;21.82;70.83
49489;SHT31;35382;51.484;11.476;2022-08-01T09:41:40;21.82;72.68
49489;SHT31;35382;51.484;11.476;2022-08-01T09:43:26;21.79;73.53
49489;SHT31;35382;51.484;11.476;2022-08-01T09:45:07;21.68;74.48
49489;SHT31;35382;51.484;11.476;2022-08-01T09:46:50;21.78;75.98
49489;SHT31;35382;51.484;11.476;2022-08-01T09:48:31;21.37;73.87
49489;SHT31;35382;51.484;11.476;2022-08-01T09:50:13;21.20;74.02
49489;SHT31;35382;51.484;11.476;2022-08-01T09:51:54;21.23;74.43
49489;SHT31;35382;51.484;11.476;2022-08-01T09:53:48;21.41;75.09
49489;SHT31;35382;51.484;11.476;2022-08-01T09:55:29;21.64;75.29
49489;SHT31;35382;51.484;11.476;2022-08-01T09:57:15;21.72;72.37
49489;SHT31;35382;51.484;11.476;2022-08-01T09:58:58;21.95;72.00
49489;SHT31;35382;51.484;11.476;2022-08-01T10:00:40;21.94;73.00
49489;SHT31;35382;51.484;11.476;2022-08-01T10:04:11;22.29;72.35
49489;SHT31;35382;51.484;11.476;2022-08-01T10:05:52;22.46;72.19
49489;SHT31;35382;51.484;11.476;2022-08-01T10:07:35;22.39;71.94
49489;SHT31;35382;51.484;11.476;2022-08-01T10:09:27;22.64;69.36
49489;SHT31;35382;51.484;11.476;2022-08-01T10:11:10;23.27;68.28
49489;SHT31;35382;51.484;11.476;2022-08-01T10:12:52;22.90;68.19
49489;SHT31;35382;51.484;11.476;2022-08-01T10:14:33;23.14;68.63
49489;SHT31;35382;51.484;11.476;2022-08-01T10:16:14;23.33;68.30
49489;SHT31;35382;51.484;11.476;2022-08-01T10:17:57;23.54;66.29
49489;SHT31;35382;51.484;11.476;2022-08-01T10:19:40;23.48;67.81
49489;SHT31;35382;51.484;11.476;2022-08-01T10:21:23;23.34;67.92
49489;SHT31;35382;51.484;11.476;2022-08-01T10:23:06;23.26;68.40
49489;SHT31;35382;51.484;11.476;2022-08-01T10:24:48;23.24;68.37
49489;SHT31;35382;51.484;11.476;2022-08-01T10:26:33;23.65;67.64
49489;SHT31;35382;51.484;11.476;2022-08-01T10:28:15;23.68;67.70
49489;SHT31;35382;51.484;11.476;2022-08-01T10:29:59;23.57;68.42
49489;SHT31;35382;51.484;11.476;2022-08-01T10:31:50;23.06;67.11
49489;SHT31;35382;51.484;11.476;2022-08-01T10:33:32;22.83;69.12
49489;SHT31;35382;51.484;11.476;2022-08-01T10:35:13;22.59;69.81
49489;SHT31;35382;51.484;11.476;2022-08-01T10:36:57;22.36;70.12
49489;SHT31;35382;51.484;11.476;2022-08-01T10:38:39;22.12;70.75
49489;SHT31;35382;51.484;11.476;2022-08-01T10:40:22;22.10;71.55
49489;SHT31;35382;51.484;11.476;2022-08-01T10:42:03;21.96;72.18
49489;SHT31;35382;51.484;11.476;2022-08-01T10:43:44;22.15;73.49
49489;SHT31;35382;51.484;11.476;2022-08-01T10:45:25;22.23;72.30